Birk — V2BF5 — position and weather

sailwx.info

Track history (hours):
 
Tides and Currents Weather Stations Pressure Air Temp Water Temp Dewpoint Dewpoint Depression Visibility Wind Speed Wind Dir Waves Ship Positions

Birk

Last reported at 2016-Apr-26 04:05 UTC. Time now 2016-Apr-30 22:35 UTC.
Position N 25°49' W 079°43'.

Length 132 m; draft 7 m.

Type: Ship. MMSI: 304535000.

Date/timePositionNaut miles runAvg speedWind from/ knotsBaromVisibWave heightAir tempDewpointWater temp
2016-Apr-26 04:05N 25°49' W 079°43'712.6
2016-Apr-26 03:33N 25°54' W 079°48'1212.1
2016-Apr-26 02:33N 26°02' W 079°58'8 8.1
2016-Apr-26 01:34N 26°04' W 080°07'0 0.4
2016-Apr-26 00:24N 26°04' W 080°07'0 0.0
2016-Apr-25 23:21N 26°04' W 080°07'0 0.0
2016-Apr-25 22:33N 26°04' W 080°07'0 0.0
2016-Apr-25 21:25N 26°04' W 080°07'0 0.0
2016-Apr-25 20:32N 26°04' W 080°07'0 0.0
2016-Apr-25 19:30N 26°04' W 080°07'0 0.0
2016-Apr-25 18:23N 26°04' W 080°07'0 0.0
2016-Apr-25 17:31N 26°04' W 080°07'0 0.0
2016-Apr-25 16:24N 26°04' W 080°07'0 0.0
2016-Apr-25 15:24N 26°04' W 080°07'0 0.0
2016-Apr-25 14:28N 26°04' W 080°07'0 0.0
2016-Apr-25 13:31N 26°04' W 080°07'0 0.0
2016-Apr-25 12:25N 26°04' W 080°07'0 0.2
2016-Apr-25 11:33N 26°04' W 080°07'6 6.1
2016-Apr-25 10:33N 26°06' W 080°00'2 2.0
2016-Apr-25 09:33N 26°04' W 079°59'9 8.6
2016-Apr-25 08:33N 25°59' W 079°51'9 9.0
2016-Apr-25 07:33N 25°54' W 079°43'  
2016-Apr-18 14:26N 25°49' W 079°41'1112.4
2016-Apr-18 13:34N 25°56' W 079°50'1313.5
2016-Apr-18 12:33N 26°03' W 080°03'4 3.3
2016-Apr-18 11:25N 26°04' W 080°07'0 0.0
2016-Apr-18 10:33N 26°04' W 080°07'0 0.0
2016-Apr-18 09:32N 26°04' W 080°07'0 0.0
2016-Apr-18 08:34N 26°04' W 080°07'0 0.0
2016-Apr-18 07:30N 26°04' W 080°07'0 0.0
2016-Apr-18 06:27N 26°04' W 080°07'0 0.0
2016-Apr-18 05:33N 26°04' W 080°07'0 0.0
2016-Apr-18 04:32N 26°04' W 080°07'0 0.0
2016-Apr-18 03:28N 26°04' W 080°07'0 0.0
2016-Apr-18 02:28N 26°04' W 080°07'0 0.0
2016-Apr-18 01:31N 26°04' W 080°07'0 0.0
2016-Apr-18 00:30N 26°04' W 080°07'1 1.0
2016-Apr-17 23:33N 26°05' W 080°07'7 6.7
2016-Apr-17 22:34N 26°02' W 079°60'1515.3
2016-Apr-17 21:34N 25°54' W 079°46'1414.3
2016-Apr-17 20:33N 25°41' W 079°39'  
Track history (hours):
 
Tides and Currents Weather Stations Pressure Air Temp Water Temp Dewpoint Dewpoint Depression Visibility Wind Speed Wind Dir Waves Ship Positions

Birk

Last reported at 2016-Apr-26 04:05 UTC. Time now 2016-Apr-30 22:35 UTC.
Position N 25°49' W 079°43'.

Length 132 m; draft 7 m.

Type: Ship. MMSI: 304535000.

Date/timePositionNaut miles runAvg speedWind from/ knotsBaromVisibWave heightAir tempDewpointWater temp
2016-Apr-26 04:05N 25°49' W 079°43'712.6
2016-Apr-26 03:33N 25°54' W 079°48'1212.1
2016-Apr-26 02:33N 26°02' W 079°58'8 8.1
2016-Apr-26 01:34N 26°04' W 080°07'0 0.4
2016-Apr-26 00:24N 26°04' W 080°07'0 0.0
2016-Apr-25 23:21N 26°04' W 080°07'0 0.0
2016-Apr-25 22:33N 26°04' W 080°07'0 0.0
2016-Apr-25 21:25N 26°04' W 080°07'0 0.0
2016-Apr-25 20:32N 26°04' W 080°07'0 0.0
2016-Apr-25 19:30N 26°04' W 080°07'0 0.0
2016-Apr-25 18:23N 26°04' W 080°07'0 0.0
2016-Apr-25 17:31N 26°04' W 080°07'0 0.0
2016-Apr-25 16:24N 26°04' W 080°07'0 0.0
2016-Apr-25 15:24N 26°04' W 080°07'0 0.0
2016-Apr-25 14:28N 26°04' W 080°07'0 0.0
2016-Apr-25 13:31N 26°04' W 080°07'0 0.0
2016-Apr-25 12:25N 26°04' W 080°07'0 0.2
2016-Apr-25 11:33N 26°04' W 080°07'6 6.1
2016-Apr-25 10:33N 26°06' W 080°00'2 2.0
2016-Apr-25 09:33N 26°04' W 079°59'9 8.6
2016-Apr-25 08:33N 25°59' W 079°51'9 9.0
2016-Apr-25 07:33N 25°54' W 079°43'  
2016-Apr-18 14:26N 25°49' W 079°41'1112.4
2016-Apr-18 13:34N 25°56' W 079°50'1313.5
2016-Apr-18 12:33N 26°03' W 080°03'4 3.3
2016-Apr-18 11:25N 26°04' W 080°07'0 0.0
2016-Apr-18 10:33N 26°04' W 080°07'0 0.0
2016-Apr-18 09:32N 26°04' W 080°07'0 0.0
2016-Apr-18 08:34N 26°04' W 080°07'0 0.0
2016-Apr-18 07:30N 26°04' W 080°07'0 0.0
2016-Apr-18 06:27N 26°04' W 080°07'0 0.0
2016-Apr-18 05:33N 26°04' W 080°07'0 0.0
2016-Apr-18 04:32N 26°04' W 080°07'0 0.0
2016-Apr-18 03:28N 26°04' W 080°07'0 0.0
2016-Apr-18 02:28N 26°04' W 080°07'0 0.0
2016-Apr-18 01:31N 26°04' W 080°07'0 0.0
2016-Apr-18 00:30N 26°04' W 080°07'1 1.0
2016-Apr-17 23:33N 26°05' W 080°07'7 6.7
2016-Apr-17 22:34N 26°02' W 079°60'1515.3
2016-Apr-17 21:34N 25°54' W 079°46'1414.3
2016-Apr-17 20:33N 25°41' W 079°39'  

Dump ship's entire track history